sensor_id;sensor_type;location;lat;lon;timestamp;P1;durP1;ratioP1;P2;durP2;ratioP2
10078;SDS011;5078;42.544;22.966;2023-02-28T00:01:27;1.15;;;1.05;;
10078;SDS011;5078;42.544;22.966;2023-02-28T00:03:54;1.00;;;1.00;;
10078;SDS011;5078;42.544;22.966;2023-02-28T00:06:21;1.08;;;1.00;;
10078;SDS011;5078;42.544;22.966;2023-02-28T00:08:49;2.17;;;0.98;;
10078;SDS011;5078;42.544;22.966;2023-02-28T00:11:17;1.27;;;1.27;;
10078;SDS011;5078;42.544;22.966;2023-02-28T00:13:44;0.95;;;0.95;;
10078;SDS011;5078;42.544;22.966;2023-02-28T00:16:13;2.10;;;1.30;;
10078;SDS011;5078;42.544;22.966;2023-02-28T00:18:41;1.33;;;1.23;;
10078;SDS011;5078;42.544;22.966;2023-02-28T00:21:08;1.15;;;0.98;;
10078;SDS011;5078;42.544;22.966;2023-02-28T00:23:35;0.90;;;0.90;;
10078;SDS011;5078;42.544;22.966;2023-02-28T00:26:02;0.75;;;0.75;;
10078;SDS011;5078;42.544;22.966;2023-02-28T00:28:31;1.08;;;1.05;;
10078;SDS011;5078;42.544;22.966;2023-02-28T00:30:58;0.73;;;0.73;;
10078;SDS011;5078;42.544;22.966;2023-02-28T00:33:25;0.70;;;0.70;;
10078;SDS011;5078;42.544;22.966;2023-02-28T00:36:00;0.80;;;0.80;;
10078;SDS011;5078;42.544;22.966;2023-02-28T00:38:28;1.30;;;1.23;;
10078;SDS011;5078;42.544;22.966;2023-02-28T00:40:55;0.80;;;0.80;;
10078;SDS011;5078;42.544;22.966;2023-02-28T00:43:21;1.17;;;1.08;;
10078;SDS011;5078;42.544;22.966;2023-02-28T00:45:50;1.08;;;1.08;;
10078;SDS011;5078;42.544;22.966;2023-02-28T00:48:16;1.10;;;1.10;;
10078;SDS011;5078;42.544;22.966;2023-02-28T00:50:43;1.10;;;1.10;;
10078;SDS011;5078;42.544;22.966;2023-02-28T00:53:10;0.90;;;0.90;;
10078;SDS011;5078;42.544;22.966;2023-02-28T00:55:36;0.73;;;0.73;;
10078;SDS011;5078;42.544;22.966;2023-02-28T00:58:03;1.00;;;1.00;;
10078;SDS011;5078;42.544;22.966;2023-02-28T01:00:30;1.17;;;1.17;;
10078;SDS011;5078;42.544;22.966;2023-02-28T01:02:58;1.08;;;0.98;;
10078;SDS011;5078;42.544;22.966;2023-02-28T01:05:25;0.98;;;0.98;;
10078;SDS011;5078;42.544;22.966;2023-02-28T01:07:52;1.10;;;1.10;;
10078;SDS011;5078;42.544;22.966;2023-02-28T01:10:18;0.90;;;0.90;;
10078;SDS011;5078;42.544;22.966;2023-02-28T01:12:45;1.10;;;1.08;;
10078;SDS011;5078;42.544;22.966;2023-02-28T01:15:12;1.77;;;0.88;;
10078;SDS011;5078;42.544;22.966;2023-02-28T01:17:39;1.75;;;1.65;;
10078;SDS011;5078;42.544;22.966;2023-02-28T01:20:08;1.50;;;0.80;;
10078;SDS011;5078;42.544;22.966;2023-02-28T01:22:35;0.98;;;0.98;;
10078;SDS011;5078;42.544;22.966;2023-02-28T01:25:02;1.95;;;1.85;;
10078;SDS011;5078;42.544;22.966;2023-02-28T01:27:29;0.95;;;0.95;;
10078;SDS011;5078;42.544;22.966;2023-02-28T01:29:56;1.15;;;1.15;;
10078;SDS011;5078;42.544;22.966;2023-02-28T01:32:23;1.23;;;1.15;;
10078;SDS011;5078;42.544;22.966;2023-02-28T01:34:49;0.85;;;0.85;;
10078;SDS011;5078;42.544;22.966;2023-02-28T01:37:17;0.77;;;0.77;;
10078;SDS011;5078;42.544;22.966;2023-02-28T01:39:44;1.27;;;1.27;;
10078;SDS011;5078;42.544;22.966;2023-02-28T01:42:11;0.93;;;0.93;;
10078;SDS011;5078;42.544;22.966;2023-02-28T01:44:55;0.75;;;0.75;;
10078;SDS011;5078;42.544;22.966;2023-02-28T01:47:25;1.25;;;1.23;;
10078;SDS011;5078;42.544;22.966;2023-02-28T01:49:56;1.10;;;1.10;;
10078;SDS011;5078;42.544;22.966;2023-02-28T01:52:26;1.20;;;1.20;;
10078;SDS011;5078;42.544;22.966;2023-02-28T01:54:54;1.30;;;1.20;;
10078;SDS011;5078;42.544;22.966;2023-02-28T01:57:23;0.82;;;0.82;;
10078;SDS011;5078;42.544;22.966;2023-02-28T01:59:57;1.00;;;1.00;;
10078;SDS011;5078;42.544;22.966;2023-02-28T02:02:25;0.93;;;0.93;;
10078;SDS011;5078;42.544;22.966;2023-02-28T02:04:54;1.13;;;1.02;;
10078;SDS011;5078;42.544;22.966;2023-02-28T02:07:23;1.63;;;1.60;;
10078;SDS011;5078;42.544;22.966;2023-02-28T02:10:00;1.13;;;1.13;;
10078;SDS011;5078;42.544;22.966;2023-02-28T02:12:30;2.97;;;1.45;;
10078;SDS011;5078;42.544;22.966;2023-02-28T02:15:11;0.73;;;0.73;;
10078;SDS011;5078;42.544;22.966;2023-02-28T02:17:43;0.90;;;0.88;;
10078;SDS011;5078;42.544;22.966;2023-02-28T02:26:30;0.80;;;0.80;;
10078;SDS011;5078;42.544;22.966;2023-02-28T02:35:26;0.70;;;0.70;;
10078;SDS011;5078;42.544;22.966;2023-02-28T02:37:57;0.95;;;0.95;;
10078;SDS011;5078;42.544;22.966;2023-02-28T02:40:30;1.60;;;1.52;;
10078;SDS011;5078;42.544;22.966;2023-02-28T02:43:02;1.83;;;1.73;;
10078;SDS011;5078;42.544;22.966;2023-02-28T02:45:35;0.90;;;0.90;;
10078;SDS011;5078;42.544;22.966;2023-02-28T02:48:06;0.90;;;0.90;;
10078;SDS011;5078;42.544;22.966;2023-02-28T02:50:39;1.10;;;1.10;;
10078;SDS011;5078;42.544;22.966;2023-02-28T02:53:10;1.15;;;1.15;;
10078;SDS011;5078;42.544;22.966;2023-02-28T02:55:39;1.30;;;1.30;;
10078;SDS011;5078;42.544;22.966;2023-02-28T02:58:10;1.25;;;0.93;;
10078;SDS011;5078;42.544;22.966;2023-02-28T03:00:42;1.03;;;1.03;;
10078;SDS011;5078;42.544;22.966;2023-02-28T03:03:13;0.80;;;0.80;;
10078;SDS011;5078;42.544;22.966;2023-02-28T03:05:44;3.03;;;1.40;;
10078;SDS011;5078;42.544;22.966;2023-02-28T03:08:12;0.70;;;0.70;;
10078;SDS011;5078;42.544;22.966;2023-02-28T03:10:41;1.02;;;1.02;;
10078;SDS011;5078;42.544;22.966;2023-02-28T03:13:17;1.83;;;1.73;;
10078;SDS011;5078;42.544;22.966;2023-02-28T03:16:21;1.00;;;1.00;;
10078;SDS011;5078;42.544;22.966;2023-02-28T03:18:58;0.93;;;0.93;;
10078;SDS011;5078;42.544;22.966;2023-02-28T03:21:34;0.85;;;0.85;;
10078;SDS011;5078;42.544;22.966;2023-02-28T03:24:05;1.47;;;1.37;;
10078;SDS011;5078;42.544;22.966;2023-02-28T03:26:36;0.80;;;0.80;;
10078;SDS011;5078;42.544;22.966;2023-02-28T03:29:08;0.80;;;0.80;;
10078;SDS011;5078;42.544;22.966;2023-02-28T03:31:43;1.13;;;1.13;;
10078;SDS011;5078;42.544;22.966;2023-02-28T03:34:15;0.70;;;0.70;;
10078;SDS011;5078;42.544;22.966;2023-02-28T03:36:51;0.90;;;0.90;;
10078;SDS011;5078;42.544;22.966;2023-02-28T03:39:22;1.10;;;1.10;;
10078;SDS011;5078;42.544;22.966;2023-02-28T03:41:54;2.20;;;1.30;;
10078;SDS011;5078;42.544;22.966;2023-02-28T03:44:27;1.87;;;1.77;;
10078;SDS011;5078;42.544;22.966;2023-02-28T03:46:59;1.13;;;1.13;;
10078;SDS011;5078;42.544;22.966;2023-02-28T03:49:30;0.77;;;0.77;;
10078;SDS011;5078;42.544;22.966;2023-02-28T03:52:03;1.77;;;1.67;;
10078;SDS011;5078;42.544;22.966;2023-02-28T03:54:34;1.20;;;1.20;;
10078;SDS011;5078;42.544;22.966;2023-02-28T03:57:08;1.23;;;1.23;;
10078;SDS011;5078;42.544;22.966;2023-02-28T03:59:42;1.50;;;1.40;;
10078;SDS011;5078;42.544;22.966;2023-02-28T04:02:11;0.80;;;0.80;;
10078;SDS011;5078;42.544;22.966;2023-02-28T04:04:38;1.50;;;1.40;;
10078;SDS011;5078;42.544;22.966;2023-02-28T04:07:15;1.10;;;1.00;;
10078;SDS011;5078;42.544;22.966;2023-02-28T04:09:42;1.27;;;1.17;;
10078;SDS011;5078;42.544;22.966;2023-02-28T04:12:09;1.17;;;1.17;;
10078;SDS011;5078;42.544;22.966;2023-02-28T04:14:36;1.08;;;0.98;;
10078;SDS011;5078;42.544;22.966;2023-02-28T04:17:02;0.75;;;0.75;;
10078;SDS011;5078;42.544;22.966;2023-02-28T04:19:29;0.70;;;0.70;;
10078;SDS011;5078;42.544;22.966;2023-02-28T04:21:56;1.92;;;1.20;;
10078;SDS011;5078;42.544;22.966;2023-02-28T04:24:24;0.85;;;0.85;;
10078;SDS011;5078;42.544;22.966;2023-02-28T04:26:53;0.77;;;0.77;;
10078;SDS011;5078;42.544;22.966;2023-02-28T04:29:22;2.33;;;1.23;;
10078;SDS011;5078;42.544;22.966;2023-02-28T04:31:50;0.80;;;0.80;;
10078;SDS011;5078;42.544;22.966;2023-02-28T04:34:18;0.80;;;0.80;;
10078;SDS011;5078;42.544;22.966;2023-02-28T04:36:46;2.55;;;2.35;;
10078;SDS011;5078;42.544;22.966;2023-02-28T04:39:14;0.90;;;0.90;;
10078;SDS011;5078;42.544;22.966;2023-02-28T04:41:42;1.03;;;0.90;;
10078;SDS011;5078;42.544;22.966;2023-02-28T04:44:08;1.13;;;1.05;;
10078;SDS011;5078;42.544;22.966;2023-02-28T04:46:35;1.43;;;1.30;;
10078;SDS011;5078;42.544;22.966;2023-02-28T04:49:02;1.20;;;1.20;;
10078;SDS011;5078;42.544;22.966;2023-02-28T04:51:29;1.13;;;0.90;;
10078;SDS011;5078;42.544;22.966;2023-02-28T04:53:56;6.07;;;1.27;;
10078;SDS011;5078;42.544;22.966;2023-02-28T04:56:23;0.75;;;0.75;;
10078;SDS011;5078;42.544;22.966;2023-02-28T04:58:51;1.80;;;1.70;;
10078;SDS011;5078;42.544;22.966;2023-02-28T05:01:19;1.10;;;1.00;;
10078;SDS011;5078;42.544;22.966;2023-02-28T05:03:48;1.83;;;1.73;;
10078;SDS011;5078;42.544;22.966;2023-02-28T05:06:16;1.25;;;1.17;;
10078;SDS011;5078;42.544;22.966;2023-02-28T05:08:43;1.13;;;1.02;;
10078;SDS011;5078;42.544;22.966;2023-02-28T05:11:13;1.73;;;1.35;;
10078;SDS011;5078;42.544;22.966;2023-02-28T05:13:43;2.05;;;1.95;;
10078;SDS011;5078;42.544;22.966;2023-02-28T05:16:11;1.10;;;1.10;;
10078;SDS011;5078;42.544;22.966;2023-02-28T05:18:38;1.95;;;1.85;;
10078;SDS011;5078;42.544;22.966;2023-02-28T05:21:05;1.33;;;1.23;;
10078;SDS011;5078;42.544;22.966;2023-02-28T05:23:32;0.90;;;0.90;;
10078;SDS011;5078;42.544;22.966;2023-02-28T05:25:59;1.02;;;1.02;;
10078;SDS011;5078;42.544;22.966;2023-02-28T05:28:25;1.50;;;1.40;;
10078;SDS011;5078;42.544;22.966;2023-02-28T05:30:52;1.38;;;1.27;;
10078;SDS011;5078;42.544;22.966;2023-02-28T05:33:21;1.60;;;1.55;;
10078;SDS011;5078;42.544;22.966;2023-02-28T05:35:47;1.10;;;1.00;;
10078;SDS011;5078;42.544;22.966;2023-02-28T05:38:14;1.33;;;1.23;;
10078;SDS011;5078;42.544;22.966;2023-02-28T05:40:41;0.60;;;0.60;;
10078;SDS011;5078;42.544;22.966;2023-02-28T05:43:09;0.80;;;0.80;;
10078;SDS011;5078;42.544;22.966;2023-02-28T05:45:37;1.88;;;1.42;;
10078;SDS011;5078;42.544;22.966;2023-02-28T05:48:04;0.80;;;0.80;;
10078;SDS011;5078;42.544;22.966;2023-02-28T05:50:32;0.63;;;0.63;;
10078;SDS011;5078;42.544;22.966;2023-02-28T05:52:59;1.73;;;1.63;;
10078;SDS011;5078;42.544;22.966;2023-02-28T05:55:26;0.80;;;0.80;;
10078;SDS011;5078;42.544;22.966;2023-02-28T05:57:55;0.80;;;0.80;;
10078;SDS011;5078;42.544;22.966;2023-02-28T06:00:22;1.40;;;1.40;;
10078;SDS011;5078;42.544;22.966;2023-02-28T06:02:49;1.67;;;1.57;;
10078;SDS011;5078;42.544;22.966;2023-02-28T06:05:17;2.23;;;2.13;;
10078;SDS011;5078;42.544;22.966;2023-02-28T06:07:45;1.27;;;1.17;;
10078;SDS011;5078;42.544;22.966;2023-02-28T06:10:12;0.80;;;0.80;;
10078;SDS011;5078;42.544;22.966;2023-02-28T06:12:39;3.40;;;1.97;;
10078;SDS011;5078;42.544;22.966;2023-02-28T06:15:09;1.08;;;1.00;;
10078;SDS011;5078;42.544;22.966;2023-02-28T06:17:39;0.95;;;0.95;;
10078;SDS011;5078;42.544;22.966;2023-02-28T06:20:06;1.10;;;1.10;;
10078;SDS011;5078;42.544;22.966;2023-02-28T06:25:38;1.00;;;1.00;;
10078;SDS011;5078;42.544;22.966;2023-02-28T06:28:05;2.35;;;2.25;;
10078;SDS011;5078;42.544;22.966;2023-02-28T06:30:32;1.17;;;1.13;;
10078;SDS011;5078;42.544;22.966;2023-02-28T06:32:59;2.23;;;2.13;;
10078;SDS011;5078;42.544;22.966;2023-02-28T06:35:25;1.80;;;1.70;;
10078;SDS011;5078;42.544;22.966;2023-02-28T06:37:52;2.08;;;1.98;;
10078;SDS011;5078;42.544;22.966;2023-02-28T06:40:20;2.20;;;2.03;;
10078;SDS011;5078;42.544;22.966;2023-02-28T06:42:47;0.83;;;0.83;;
10078;SDS011;5078;42.544;22.966;2023-02-28T06:45:14;2.00;;;1.90;;
10078;SDS011;5078;42.544;22.966;2023-02-28T06:47:40;1.20;;;1.20;;
10078;SDS011;5078;42.544;22.966;2023-02-28T06:50:09;0.90;;;0.90;;
10078;SDS011;5078;42.544;22.966;2023-02-28T06:52:37;1.15;;;0.75;;
10078;SDS011;5078;42.544;22.966;2023-02-28T06:55:04;0.70;;;0.70;;
10078;SDS011;5078;42.544;22.966;2023-02-28T06:57:35;0.85;;;0.85;;
10078;SDS011;5078;42.544;22.966;2023-02-28T07:00:03;0.70;;;0.70;;
10078;SDS011;5078;42.544;22.966;2023-02-28T07:02:32;1.17;;;1.17;;
10078;SDS011;5078;42.544;22.966;2023-02-28T07:04:59;1.33;;;1.33;;
10078;SDS011;5078;42.544;22.966;2023-02-28T07:07:26;1.30;;;1.23;;
10078;SDS011;5078;42.544;22.966;2023-02-28T07:09:53;1.00;;;1.00;;
10078;SDS011;5078;42.544;22.966;2023-02-28T07:12:20;1.52;;;1.42;;
10078;SDS011;5078;42.544;22.966;2023-02-28T07:14:48;2.35;;;1.90;;
10078;SDS011;5078;42.544;22.966;2023-02-28T07:17:14;1.60;;;1.50;;
10078;SDS011;5078;42.544;22.966;2023-02-28T07:19:41;0.98;;;0.98;;
10078;SDS011;5078;42.544;22.966;2023-02-28T07:22:08;2.85;;;2.63;;
10078;SDS011;5078;42.544;22.966;2023-02-28T07:24:34;1.55;;;1.45;;
10078;SDS011;5078;42.544;22.966;2023-02-28T07:27:01;2.30;;;2.08;;
10078;SDS011;5078;42.544;22.966;2023-02-28T07:29:28;1.38;;;1.38;;
10078;SDS011;5078;42.544;22.966;2023-02-28T07:31:56;1.98;;;1.83;;
10078;SDS011;5078;42.544;22.966;2023-02-28T07:34:23;1.27;;;1.20;;
10078;SDS011;5078;42.544;22.966;2023-02-28T07:36:52;2.00;;;1.42;;
10078;SDS011;5078;42.544;22.966;2023-02-28T07:39:19;2.97;;;1.42;;
10078;SDS011;5078;42.544;22.966;2023-02-28T07:41:46;1.42;;;1.35;;
10078;SDS011;5078;42.544;22.966;2023-02-28T07:44:13;3.08;;;1.80;;
10078;SDS011;5078;42.544;22.966;2023-02-28T07:46:40;1.15;;;1.15;;
10078;SDS011;5078;42.544;22.966;2023-02-28T07:49:08;0.75;;;0.75;;
10078;SDS011;5078;42.544;22.966;2023-02-28T07:51:35;1.25;;;1.15;;
10078;SDS011;5078;42.544;22.966;2023-02-28T07:54:02;1.85;;;1.75;;
10078;SDS011;5078;42.544;22.966;2023-02-28T07:56:29;2.67;;;1.75;;
10078;SDS011;5078;42.544;22.966;2023-02-28T07:58:55;1.08;;;1.02;;
10078;SDS011;5078;42.544;22.966;2023-02-28T08:01:22;1.58;;;1.48;;
10078;SDS011;5078;42.544;22.966;2023-02-28T08:03:49;1.30;;;1.20;;
10078;SDS011;5078;42.544;22.966;2023-02-28T08:06:17;1.52;;;1.42;;
10078;SDS011;5078;42.544;22.966;2023-02-28T08:08:45;2.65;;;2.50;;
10078;SDS011;5078;42.544;22.966;2023-02-28T08:11:13;1.50;;;1.40;;
10078;SDS011;5078;42.544;22.966;2023-02-28T08:13:40;1.13;;;1.10;;
10078;SDS011;5078;42.544;22.966;2023-02-28T08:16:07;1.50;;;1.48;;
10078;SDS011;5078;42.544;22.966;2023-02-28T08:18:34;1.10;;;1.10;;
10078;SDS011;5078;42.544;22.966;2023-02-28T08:21:05;0.88;;;0.88;;
10078;SDS011;5078;42.544;22.966;2023-02-28T08:23:33;0.93;;;0.93;;
10078;SDS011;5078;42.544;22.966;2023-02-28T08:26:00;2.17;;;1.30;;
10078;SDS011;5078;42.544;22.966;2023-02-28T08:28:27;1.60;;;1.50;;
10078;SDS011;5078;42.544;22.966;2023-02-28T08:30:54;2.60;;;1.58;;
10078;SDS011;5078;42.544;22.966;2023-02-28T08:33:21;3.90;;;2.35;;
10078;SDS011;5078;42.544;22.966;2023-02-28T08:35:48;0.75;;;0.75;;
10078;SDS011;5078;42.544;22.966;2023-02-28T08:38:15;1.10;;;1.10;;
10078;SDS011;5078;42.544;22.966;2023-02-28T08:40:43;1.50;;;1.40;;
10078;SDS011;5078;42.544;22.966;2023-02-28T08:43:09;1.52;;;1.42;;
10078;SDS011;5078;42.544;22.966;2023-02-28T08:45:36;4.15;;;1.98;;
10078;SDS011;5078;42.544;22.966;2023-02-28T08:48:03;2.05;;;1.38;;
10078;SDS011;5078;42.544;22.966;2023-02-28T08:50:30;2.15;;;1.95;;
10078;SDS011;5078;42.544;22.966;2023-02-28T08:52:57;1.63;;;1.52;;
10078;SDS011;5078;42.544;22.966;2023-02-28T08:55:24;3.58;;;1.75;;
10078;SDS011;5078;42.544;22.966;2023-02-28T08:57:52;1.25;;;1.17;;
10078;SDS011;5078;42.544;22.966;2023-02-28T09:00:20;1.58;;;1.48;;
10078;SDS011;5078;42.544;22.966;2023-02-28T09:02:50;1.42;;;1.33;;
10078;SDS011;5078;42.544;22.966;2023-02-28T09:05:18;1.30;;;1.20;;
10078;SDS011;5078;42.544;22.966;2023-02-28T09:07:45;4.55;;;1.92;;
10078;SDS011;5078;42.544;22.966;2023-02-28T09:17:29;4.30;;;2.72;;
10078;SDS011;5078;42.544;22.966;2023-02-28T09:19:56;1.83;;;1.58;;
10078;SDS011;5078;42.544;22.966;2023-02-28T09:22:23;2.72;;;2.53;;
10078;SDS011;5078;42.544;22.966;2023-02-28T09:25:03;2.83;;;2.63;;
10078;SDS011;5078;42.544;22.966;2023-02-28T09:27:30;1.80;;;1.65;;
10078;SDS011;5078;42.544;22.966;2023-02-28T09:29:57;1.75;;;1.67;;
10078;SDS011;5078;42.544;22.966;2023-02-28T09:32:23;4.57;;;2.17;;
10078;SDS011;5078;42.544;22.966;2023-02-28T09:34:55;2.75;;;2.35;;
10078;SDS011;5078;42.544;22.966;2023-02-28T09:37:22;2.45;;;2.25;;
10078;SDS011;5078;42.544;22.966;2023-02-28T09:39:48;2.42;;;2.22;;
10078;SDS011;5078;42.544;22.966;2023-02-28T09:42:18;2.08;;;1.95;;
10078;SDS011;5078;42.544;22.966;2023-02-28T09:44:49;2.28;;;1.77;;
10078;SDS011;5078;42.544;22.966;2023-02-28T09:47:18;5.95;;;2.10;;
10078;SDS011;5078;42.544;22.966;2023-02-28T09:49:54;4.10;;;2.35;;
10078;SDS011;5078;42.544;22.966;2023-02-28T09:52:26;2.13;;;1.85;;
10078;SDS011;5078;42.544;22.966;2023-02-28T09:54:55;1.95;;;1.75;;
10078;SDS011;5078;42.544;22.966;2023-02-28T09:57:24;2.17;;;2.08;;
10078;SDS011;5078;42.544;22.966;2023-02-28T10:00:02;4.45;;;2.05;;
10078;SDS011;5078;42.544;22.966;2023-02-28T10:02:45;1.75;;;1.63;;
10078;SDS011;5078;42.544;22.966;2023-02-28T10:05:20;1.30;;;1.30;;
10078;SDS011;5078;42.544;22.966;2023-02-28T10:07:58;6.25;;;2.92;;
10078;SDS011;5078;42.544;22.966;2023-02-28T10:10:32;2.35;;;2.17;;
10078;SDS011;5078;42.544;22.966;2023-02-28T10:13:04;1.58;;;1.48;;
10078;SDS011;5078;42.544;22.966;2023-02-28T10:15:37;3.75;;;2.15;;
10078;SDS011;5078;42.544;22.966;2023-02-28T10:18:05;3.70;;;2.58;;
10078;SDS011;5078;42.544;22.966;2023-02-28T10:20:39;1.40;;;1.35;;
10078;SDS011;5078;42.544;22.966;2023-02-28T10:23:09;1.52;;;1.42;;
10078;SDS011;5078;42.544;22.966;2023-02-28T10:25:40;1.90;;;1.48;;
10078;SDS011;5078;42.544;22.966;2023-02-28T10:28:13;5.72;;;2.30;;
10078;SDS011;5078;42.544;22.966;2023-02-28T10:30:44;2.83;;;2.15;;
10078;SDS011;5078;42.544;22.966;2023-02-28T10:33:17;2.20;;;2.00;;
10078;SDS011;5078;42.544;22.966;2023-02-28T10:35:49;3.10;;;2.72;;
10078;SDS011;5078;42.544;22.966;2023-02-28T10:38:18;2.42;;;2.22;;
10078;SDS011;5078;42.544;22.966;2023-02-28T10:40:46;1.33;;;1.23;;
10078;SDS011;5078;42.544;22.966;2023-02-28T10:43:22;4.00;;;2.95;;
10078;SDS011;5078;42.544;22.966;2023-02-28T10:45:54;3.10;;;1.75;;
10078;SDS011;5078;42.544;22.966;2023-02-28T10:48:29;4.07;;;3.72;;
10078;SDS011;5078;42.544;22.966;2023-02-28T10:51:00;3.10;;;2.90;;
10078;SDS011;5078;42.544;22.966;2023-02-28T10:53:30;7.95;;;2.15;;
10078;SDS011;5078;42.544;22.966;2023-02-28T10:56:00;1.95;;;1.85;;
10078;SDS011;5078;42.544;22.966;2023-02-28T10:58:30;2.03;;;1.90;;
10078;SDS011;5078;42.544;22.966;2023-02-28T11:01:12;2.80;;;2.60;;
10078;SDS011;5078;42.544;22.966;2023-02-28T11:03:41;1.25;;;1.25;;
10078;SDS011;5078;42.544;22.966;2023-02-28T11:06:12;1.88;;;1.75;;
10078;SDS011;5078;42.544;22.966;2023-02-28T11:08:46;4.15;;;3.85;;
10078;SDS011;5078;42.544;22.966;2023-02-28T11:11:14;1.65;;;1.55;;
10078;SDS011;5078;42.544;22.966;2023-02-28T11:13:43;1.67;;;1.58;;
10078;SDS011;5078;42.544;22.966;2023-02-28T11:16:12;2.65;;;2.25;;
10078;SDS011;5078;42.544;22.966;2023-02-28T11:18:41;1.80;;;1.70;;
10078;SDS011;5078;42.544;22.966;2023-02-28T11:21:15;2.40;;;1.95;;
10078;SDS011;5078;42.544;22.966;2023-02-28T11:23:44;3.05;;;1.63;;
10078;SDS011;5078;42.544;22.966;2023-02-28T11:26:11;1.77;;;1.67;;
10078;SDS011;5078;42.544;22.966;2023-02-28T11:28:38;1.80;;;1.70;;
10078;SDS011;5078;42.544;22.966;2023-02-28T11:31:16;1.77;;;1.67;;
10078;SDS011;5078;42.544;22.966;2023-02-28T11:33:47;2.47;;;1.90;;
10078;SDS011;5078;42.544;22.966;2023-02-28T11:36:18;2.78;;;2.53;;
10078;SDS011;5078;42.544;22.966;2023-02-28T11:38:49;1.67;;;1.58;;
10078;SDS011;5078;42.544;22.966;2023-02-28T11:44:20;4.13;;;1.17;;
10078;SDS011;5078;42.544;22.966;2023-02-28T11:46:54;3.22;;;1.95;;
10078;SDS011;5078;42.544;22.966;2023-02-28T11:49:32;1.75;;;1.52;;
10078;SDS011;5078;42.544;22.966;2023-02-28T11:52:08;2.35;;;2.13;;
10078;SDS011;5078;42.544;22.966;2023-02-28T11:57:49;2.83;;;2.63;;
10078;SDS011;5078;42.544;22.966;2023-02-28T12:00:36;3.83;;;3.45;;
10078;SDS011;5078;42.544;22.966;2023-02-28T12:03:14;4.38;;;1.95;;
10078;SDS011;5078;42.544;22.966;2023-02-28T12:05:51;2.05;;;1.95;;
10078;SDS011;5078;42.544;22.966;2023-02-28T12:08:31;2.40;;;2.20;;
10078;SDS011;5078;42.544;22.966;2023-02-28T12:11:11;2.10;;;1.90;;
10078;SDS011;5078;42.544;22.966;2023-02-28T12:13:46;6.10;;;3.20;;
10078;SDS011;5078;42.544;22.966;2023-02-28T12:16:18;3.25;;;2.90;;
10078;SDS011;5078;42.544;22.966;2023-02-28T12:19:01;3.38;;;2.47;;
10078;SDS011;5078;42.544;22.966;2023-02-28T12:21:41;2.33;;;1.55;;
10078;SDS011;5078;42.544;22.966;2023-02-28T12:27:16;5.15;;;1.80;;
10078;SDS011;5078;42.544;22.966;2023-02-28T12:29:49;3.97;;;2.83;;
10078;SDS011;5078;42.544;22.966;2023-02-28T12:32:21;2.42;;;2.22;;
10078;SDS011;5078;42.544;22.966;2023-02-28T12:34:54;3.10;;;2.88;;
10078;SDS011;5078;42.544;22.966;2023-02-28T12:37:25;2.15;;;2.05;;
10078;SDS011;5078;42.544;22.966;2023-02-28T12:40:01;3.63;;;3.25;;
10078;SDS011;5078;42.544;22.966;2023-02-28T12:42:32;2.25;;;2.05;;
10078;SDS011;5078;42.544;22.966;2023-02-28T12:45:10;2.97;;;2.63;;
10078;SDS011;5078;42.544;22.966;2023-02-28T12:47:45;8.80;;;5.10;;
10078;SDS011;5078;42.544;22.966;2023-02-28T12:50:15;5.53;;;3.55;;
10078;SDS011;5078;42.544;22.966;2023-02-28T12:52:47;2.50;;;2.38;;
10078;SDS011;5078;42.544;22.966;2023-02-28T12:55:21;4.78;;;2.85;;
10078;SDS011;5078;42.544;22.966;2023-02-28T12:57:57;7.10;;;2.78;;
10078;SDS011;5078;42.544;22.966;2023-02-28T13:00:33;2.92;;;2.72;;
10078;SDS011;5078;42.544;22.966;2023-02-28T13:06:05;3.53;;;3.05;;
10078;SDS011;5078;42.544;22.966;2023-02-28T13:09:09;3.92;;;2.45;;
10078;SDS011;5078;42.544;22.966;2023-02-28T13:11:43;2.72;;;2.05;;
10078;SDS011;5078;42.544;22.966;2023-02-28T13:14:22;2.28;;;2.08;;
10078;SDS011;5078;42.544;22.966;2023-02-28T13:16:55;3.67;;;3.10;;
10078;SDS011;5078;42.544;22.966;2023-02-28T13:19:26;1.50;;;1.40;;
10078;SDS011;5078;42.544;22.966;2023-02-28T13:21:55;2.88;;;2.55;;
10078;SDS011;5078;42.544;22.966;2023-02-28T13:30:00;8.13;;;2.58;;
10078;SDS011;5078;42.544;22.966;2023-02-28T13:32:32;3.08;;;2.90;;
10078;SDS011;5078;42.544;22.966;2023-02-28T13:38:15;5.30;;;3.47;;
10078;SDS011;5078;42.544;22.966;2023-02-28T13:44:07;3.65;;;3.00;;
10078;SDS011;5078;42.544;22.966;2023-02-28T13:46:35;6.75;;;3.65;;
10078;SDS011;5078;42.544;22.966;2023-02-28T13:49:24;4.07;;;3.22;;
10078;SDS011;5078;42.544;22.966;2023-02-28T13:51:53;3.80;;;2.25;;
10078;SDS011;5078;42.544;22.966;2023-02-28T13:54:35;3.40;;;2.95;;
10078;SDS011;5078;42.544;22.966;2023-02-28T13:57:15;2.30;;;2.20;;
10078;SDS011;5078;42.544;22.966;2023-02-28T13:59:57;2.15;;;1.95;;
10078;SDS011;5078;42.544;22.966;2023-02-28T14:02:50;3.60;;;2.95;;
10078;SDS011;5078;42.544;22.966;2023-02-28T14:05:32;4.10;;;2.20;;
10078;SDS011;5078;42.544;22.966;2023-02-28T14:08:03;9.13;;;3.05;;
10078;SDS011;5078;42.544;22.966;2023-02-28T14:10:35;2.53;;;2.35;;
10078;SDS011;5078;42.544;22.966;2023-02-28T14:13:13;3.47;;;3.17;;
10078;SDS011;5078;42.544;22.966;2023-02-28T14:16:04;3.65;;;2.78;;
10078;SDS011;5078;42.544;22.966;2023-02-28T14:18:33;4.05;;;3.38;;
10078;SDS011;5078;42.544;22.966;2023-02-28T14:21:02;2.13;;;1.60;;
10078;SDS011;5078;42.544;22.966;2023-02-28T14:23:52;12.27;;;2.92;;
10078;SDS011;5078;42.544;22.966;2023-02-28T14:29:28;3.47;;;2.80;;
10078;SDS011;5078;42.544;22.966;2023-02-28T14:32:05;5.90;;;3.70;;
10078;SDS011;5078;42.544;22.966;2023-02-28T14:34:42;6.15;;;3.05;;
10078;SDS011;5078;42.544;22.966;2023-02-28T14:37:15;4.18;;;3.00;;
10078;SDS011;5078;42.544;22.966;2023-02-28T14:39:46;4.72;;;3.63;;
10078;SDS011;5078;42.544;22.966;2023-02-28T14:43:47;3.08;;;2.38;;
10078;SDS011;5078;42.544;22.966;2023-02-28T14:45:49;2.55;;;2.35;;
10078;SDS011;5078;42.544;22.966;2023-02-28T14:48:19;3.70;;;2.97;;
10078;SDS011;5078;42.544;22.966;2023-02-28T14:50:51;4.78;;;3.80;;
10078;SDS011;5078;42.544;22.966;2023-02-28T14:53:26;2.22;;;2.13;;
10078;SDS011;5078;42.544;22.966;2023-02-28T14:55:55;4.00;;;3.08;;
10078;SDS011;5078;42.544;22.966;2023-02-28T14:58:23;3.28;;;3.08;;
10078;SDS011;5078;42.544;22.966;2023-02-28T15:00:52;3.72;;;3.38;;
10078;SDS011;5078;42.544;22.966;2023-02-28T15:03:31;2.92;;;2.38;;
10078;SDS011;5078;42.544;22.966;2023-02-28T15:06:00;3.00;;;2.45;;
10078;SDS011;5078;42.544;22.966;2023-02-28T15:08:30;3.33;;;2.45;;
10078;SDS011;5078;42.544;22.966;2023-02-28T15:11:01;4.25;;;3.70;;
10078;SDS011;5078;42.544;22.966;2023-02-28T15:13:32;3.53;;;3.22;;
10078;SDS011;5078;42.544;22.966;2023-02-28T15:16:03;6.40;;;2.95;;
10078;SDS011;5078;42.544;22.966;2023-02-28T15:18:36;3.97;;;3.00;;
10078;SDS011;5078;42.544;22.966;2023-02-28T15:21:12;3.45;;;2.72;;
10078;SDS011;5078;42.544;22.966;2023-02-28T15:23:42;2.40;;;2.20;;
10078;SDS011;5078;42.544;22.966;2023-02-28T15:26:13;3.65;;;3.28;;
10078;SDS011;5078;42.544;22.966;2023-02-28T15:28:42;3.65;;;2.15;;
10078;SDS011;5078;42.544;22.966;2023-02-28T15:31:18;4.60;;;2.25;;
10078;SDS011;5078;42.544;22.966;2023-02-28T15:33:53;3.42;;;3.20;;
10078;SDS011;5078;42.544;22.966;2023-02-28T15:36:21;2.33;;;2.22;;
10078;SDS011;5078;42.544;22.966;2023-02-28T15:38:52;2.28;;;2.08;;
10078;SDS011;5078;42.544;22.966;2023-02-28T15:41:26;3.00;;;2.72;;
10078;SDS011;5078;42.544;22.966;2023-02-28T15:44:13;2.10;;;1.30;;
10078;SDS011;5078;42.544;22.966;2023-02-28T15:46:43;1.98;;;1.88;;
10078;SDS011;5078;42.544;22.966;2023-02-28T15:49:21;1.60;;;1.30;;
10078;SDS011;5078;42.544;22.966;2023-02-28T15:51:49;1.60;;;1.30;;
10078;SDS011;5078;42.544;22.966;2023-02-28T15:54:21;2.55;;;2.35;;
10078;SDS011;5078;42.544;22.966;2023-02-28T15:56:52;1.77;;;1.67;;
10078;SDS011;5078;42.544;22.966;2023-02-28T15:59:22;4.93;;;2.13;;